Time;durP1;ratioP1;P1;durP2;ratioP2;P2;SDS_P1;SDS_P2;PMS_P1;PMS_P2;Temp;Humidity;BMP_temperature;BMP_pressure;BME280_temperature;BME280_humidity;BME280_pressure;Samples;Min_cycle;Max_cycle;Signal;HPM_P1;HPM_P2
2021/06/22 00:02:22;;;;;;;;;;;;;;;7.46;100.00;99498.94;5119794;27;20016;-82
2021/06/22 00:04:49;;;;;;;;;;;;;;;7.45;100.00;99496.53;5153338;27;19923;-82
2021/06/22 00:07:19;;;;;;;;;;;;;;;7.36;100.00;99499.69;5116914;27;19947;-82
2021/06/22 00:09:47;;;;;;;;;;;;;;;7.17;100.00;99498.03;5120079;27;19923;-82
2021/06/22 00:12:15;;;;;;;;;;;;;;;7.25;100.00;99507.97;5139731;27;19923;-82
2021/06/22 00:14:42;;;;;;;;;;;;;;;7.19;100.00;99505.97;5140259;27;20372;-82
2021/06/22 00:17:09;;;;;;;;;;;;;;;7.20;100.00;99508.34;5159020;27;19924;-82
2021/06/22 00:19:37;;;;;;;;;;;;;;;7.26;100.00;99517.09;5158686;27;19976;-82
2021/06/22 00:22:04;;;;;;;;;;;;;;;7.17;100.00;99520.25;5144081;27;20409;-82
2021/06/22 00:24:31;;;;;;;;;;;;;;;7.26;100.00;99512.34;5136498;27;19930;-82
2021/06/22 00:27:00;;;;;;;;;;;;;;;7.29;100.00;99527.44;5091900;27;20423;-82
2021/06/22 00:29:27;;;;;;;;;;;;;;;7.17;100.00;99514.69;5132551;27;20358;-82
2021/06/22 00:31:54;;;;;;;;;;;;;;;7.06;100.00;99521.38;5133000;27;20422;-82
2021/06/22 00:34:21;;;;;;;;;;;;;;;7.03;100.00;99527.72;5119466;27;19930;-82
2021/06/22 00:36:48;;;;;;;;;;;;;;;6.91;100.00;99523.28;5140358;27;19931;-82
2021/06/22 00:39:15;;;;;;;;;;;;;;;6.91;100.00;99516.94;5140397;27;20023;-82
2021/06/22 00:41:43;;;;;;;;;;;;;;;7.00;100.00;99517.38;5136157;27;19988;-82
2021/06/22 00:44:10;;;;;;;;;;;;;;;6.89;100.00;99530.44;5140111;27;19927;-82
2021/06/22 00:46:39;;;;;;;;;;;;;;;6.99;100.00;99524.94;5108252;27;20381;-82
2021/06/22 00:49:06;;;;;;;;;;;;;;;7.01;100.00;99530.88;5136372;27;19955;-82
2021/06/22 00:51:39;;;;;;;;;;;;;;;7.03;100.00;99530.47;5109263;27;20022;-82
2021/06/22 00:54:08;;;;;;;;;;;;;;;7.08;100.00;99539.28;5140256;27;19946;-82
2021/06/22 00:56:39;;;;;;;;;;;;;;;7.53;100.00;99526.75;5135815;27;19924;-81
2021/06/22 00:59:06;;;;;;;;;;;;;;;7.73;100.00;99525.22;5125205;27;19947;-82
2021/06/22 01:01:34;;;;;;;;;;;;;;;7.89;100.00;99524.88;5139494;27;20270;-82
2021/06/22 01:04:01;;;;;;;;;;;;;;;8.08;100.00;99528.06;5136007;27;20389;-82
2021/06/22 01:06:30;;;;;;;;;;;;;;;8.17;100.00;99524.91;5139315;27;19927;-82
2021/06/22 01:09:05;;;;;;;;;;;;;;;8.17;100.00;99525.69;5136973;27;20270;-81
2021/06/22 01:11:38;;;;;;;;;;;;;;;8.23;100.00;99532.50;5135590;27;20427;-82
2021/06/22 01:14:08;;;;;;;;;;;;;;;8.24;100.00;99527.72;5112805;27;19923;-82
2021/06/22 01:16:36;;;;;;;;;;;;;;;8.25;100.00;99529.31;5118702;27;19923;-81
2021/06/22 01:19:05;;;;;;;;;;;;;;;8.27;100.00;99532.50;5139069;27;20366;-81
2021/06/22 01:21:52;;;;;;;;;;;;;;;8.33;100.00;99530.91;5135750;27;19923;-82
2021/06/22 01:24:41;;;;;;;;;;;;;;;8.34;100.00;99533.31;5122852;27;19931;-81
2021/06/22 01:27:10;;;;;;;;;;;;;;;8.36;100.00;99527.34;5111409;27;20014;-82
2021/06/22 01:29:37;;;;;;;;;;;;;;;8.41;100.00;99530.50;5125644;27;20450;-81
2021/06/22 01:32:07;;;;;;;;;;;;;;;8.43;100.00;99518.97;5118452;27;19972;-82
2021/06/22 01:34:41;;;;;;;;;;;;;;;8.44;100.00;99535.28;5118509;27;20380;-81
2021/06/22 01:37:09;;;;;;;;;;;;;;;8.40;100.00;99528.94;5115356;27;20354;-82
2021/06/22 01:39:54;;;;;;;;;;;;;;;8.36;100.00;99514.19;5136180;27;19927;-82
2021/06/22 01:42:22;;;;;;;;;;;;;;;8.32;100.00;99526.53;5136292;27;19924;-82
2021/06/22 01:44:53;;;;;;;;;;;;;;;8.34;100.00;99533.31;5117706;27;20297;-82
2021/06/22 01:47:21;;;;;;;;;;;;;;;8.32;100.00;99534.88;5130269;27;20369;-82
2021/06/22 01:50:09;;;;;;;;;;;;;;;8.24;100.00;99534.06;5118155;27;20351;-82
2021/06/22 01:52:36;;;;;;;;;;;;;;;8.18;100.00;99524.50;5101125;27;19924;-82
2021/06/22 01:57:52;;;;;;;;;;;;;;;8.17;100.00;99539.63;5117818;27;19923;-82
2021/06/22 02:00:51;;;;;;;;;;;;;;;8.28;100.00;99534.09;5118413;27;19924;-82
2021/06/22 02:03:20;;;;;;;;;;;;;;;8.30;100.00;99535.28;5120395;27;20374;-82
2021/06/22 02:05:48;;;;;;;;;;;;;;;8.36;100.00;99525.31;5136124;27;19946;-82
2021/06/22 02:08:16;;;;;;;;;;;;;;;8.35;100.00;99534.88;5135613;27;19966;-82
2021/06/22 02:10:44;;;;;;;;;;;;;;;8.35;100.00;99526.53;5117571;27;20014;-81
2021/06/22 02:13:28;;;;;;;;;;;;;;;8.33;100.00;99526.13;5117711;27;19924;-82
2021/06/22 02:16:05;;;;;;;;;;;;;;;8.33;100.00;99530.91;5101916;27;19966;-82
2021/06/22 02:18:33;;;;;;;;;;;;;;;8.35;100.00;99534.88;5117252;27;19963;-82
2021/06/22 02:21:03;;;;;;;;;;;;;;;8.35;100.00;99534.88;5117047;27;20014;-82
2021/06/22 02:23:31;;;;;;;;;;;;;;;8.35;100.00;99534.09;5131357;27;20064;-82
2021/06/22 02:25:58;;;;;;;;;;;;;;;8.33;100.00;99526.13;5135421;27;19946;-82
2021/06/22 02:28:25;;;;;;;;;;;;;;;8.37;100.00;99526.94;5117098;27;19942;-82
2021/06/22 02:30:54;;;;;;;;;;;;;;;8.34;100.00;99530.53;5100376;27;20014;-82
2021/06/22 02:33:23;;;;;;;;;;;;;;;8.32;100.00;99535.69;5135394;27;19927;-81
2021/06/22 02:35:53;;;;;;;;;;;;;;;8.35;100.00;99528.50;5117122;27;20000;-82
2021/06/22 02:38:24;;;;;;;;;;;;;;;8.30;100.00;99532.50;5116954;27;19932;-81
2021/06/22 02:40:55;;;;;;;;;;;;;;;8.34;100.00;99541.66;5100242;27;19927;-81
2021/06/22 02:43:30;;;;;;;;;;;;;;;8.35;100.00;99545.22;5117126;27;19923;-82
2021/06/22 02:45:57;;;;;;;;;;;;;;;8.37;100.00;99543.66;5116854;27;19924;-82
2021/06/22 02:48:25;;;;;;;;;;;;;;;8.33;100.00;99548.41;5116809;27;20387;-81
2021/06/22 02:50:54;;;;;;;;;;;;;;;8.32;100.00;99541.25;5116761;27;19962;-82
2021/06/22 02:53:26;;;;;;;;;;;;;;;8.33;100.00;99542.84;5099755;27;19924;-81
2021/06/22 02:55:57;;;;;;;;;;;;;;;8.29;100.00;99539.25;5132595;27;19924;-81
2021/06/22 02:58:33;;;;;;;;;;;;;;;8.31;100.00;99536.09;5101168;27;19967;-82
2021/06/22 03:01:00;;;;;;;;;;;;;;;8.32;100.00;99538.47;5135007;27;19927;-81
2021/06/22 03:03:29;;;;;;;;;;;;;;;8.28;100.00;99536.88;5126462;27;20432;-81
2021/06/22 03:06:03;;;;;;;;;;;;;;;8.32;100.00;99541.25;5134659;27;20011;-81
2021/06/22 03:08:37;;;;;;;;;;;;;;;8.26;100.00;99534.50;5116619;28;19931;-81
2021/06/22 03:11:04;;;;;;;;;;;;;;;8.25;100.00;99552.41;5134991;27;19927;-81
2021/06/22 03:13:35;;;;;;;;;;;;;;;8.24;100.00;99545.22;5123197;28;19923;-81
2021/06/22 03:16:05;;;;;;;;;;;;;;;8.23;100.00;99531.69;5086707;27;19927;-82
2021/06/22 03:18:34;;;;;;;;;;;;;;;8.29;100.00;99542.03;5116598;28;19924;-81
2021/06/22 03:21:07;;;;;;;;;;;;;;;8.24;100.00;99550.00;5116409;28;19969;-81
2021/06/22 03:23:35;;;;;;;;;;;;;;;8.26;100.00;99551.19;5116371;28;20026;-81
2021/06/22 03:26:03;;;;;;;;;;;;;;;8.26;100.00;99548.41;5127870;28;19924;-81
2021/06/22 03:28:30;;;;;;;;;;;;;;;8.29;100.00;99547.63;5135073;27;19935;-81
2021/06/22 03:30:57;;;;;;;;;;;;;;;8.28;100.00;99546.03;5116964;28;19931;-81
2021/06/22 03:33:24;;;;;;;;;;;;;;;8.32;100.00;99540.44;5116374;28;19951;-82
2021/06/22 03:35:51;;;;;;;;;;;;;;;8.32;100.00;99554.38;5116917;28;19931;-82
2021/06/22 03:38:18;;;;;;;;;;;;;;;8.32;100.00;99557.16;5126535;28;20375;-81
2021/06/22 03:40:46;;;;;;;;;;;;;;;8.32;100.00;99565.50;5116503;28;19930;-81
2021/06/22 03:43:13;;;;;;;;;;;;;;;8.33;100.00;99558.75;5116692;28;19924;-82
2021/06/22 03:45:53;;;;;;;;;;;;;;;8.32;100.00;99559.94;5116292;28;19923;-81
2021/06/22 03:48:21;;;;;;;;;;;;;;;8.33;100.00;99558.75;5100144;28;19923;-81
2021/06/22 03:50:49;;;;;;;;;;;;;;;8.30;100.00;99571.47;5134437;28;20018;-81
2021/06/22 03:53:16;;;;;;;;;;;;;;;8.36;100.00;99569.88;5082583;28;19924;-81
2021/06/22 03:55:44;;;;;;;;;;;;;;;8.38;100.00;99577.84;5096686;28;19924;-81
2021/06/22 03:58:18;;;;;;;;;;;;;;;8.33;100.00;99567.88;5083622;28;19928;-81
2021/06/22 04:00:52;;;;;;;;;;;;;;;8.36;100.00;99564.31;5115716;27;19932;-79
2021/06/22 04:03:39;;;;;;;;;;;;;;;8.35;100.00;99573.06;5134257;28;20006;-83
2021/06/22 04:06:24;;;;;;;;;;;;;;;8.30;100.00;99581.84;5120433;27;20279;-83
2021/06/22 04:08:59;;;;;;;;;;;;;;;8.33;100.00;99581.81;5120039;27;20012;-83
2021/06/22 04:11:26;;;;;;;;;;;;;;;8.36;100.00;99586.59;5102627;27;19924;-83
2021/06/22 04:13:56;;;;;;;;;;;;;;;8.39;100.00;99583.00;5111797;28;19958;-83
2021/06/22 04:16:28;;;;;;;;;;;;;;;8.38;100.00;99578.66;5109818;27;19927;-83
2021/06/22 04:18:55;;;;;;;;;;;;;;;8.42;100.00;99587.78;5114880;27;19927;-83
2021/06/22 04:21:27;;;;;;;;;;;;;;;8.43;100.00;99586.63;5119976;27;19929;-83
2021/06/22 04:23:54;;;;;;;;;;;;;;;8.41;100.00;99589.00;5113139;28;20050;-83
2021/06/22 04:26:22;;;;;;;;;;;;;;;8.45;100.00;99584.22;5106905;27;19931;-82
2021/06/22 04:28:49;;;;;;;;;;;;;;;8.51;100.00;99579.84;5119630;27;19923;-83
2021/06/22 04:31:16;;;;;;;;;;;;;;;8.60;100.00;99590.59;5137625;27;19984;-83
2021/06/22 04:33:45;;;;;;;;;;;;;;;8.63;100.00;99585.00;5102650;27;19927;-82
2021/06/22 04:36:12;;;;;;;;;;;;;;;8.71;100.00;99591.38;5119918;27;19924;-83
2021/06/22 04:38:40;;;;;;;;;;;;;;;8.79;100.00;99582.63;5102939;27;19923;-83
2021/06/22 04:41:08;;;;;;;;;;;;;;;8.88;100.00;99580.22;5137806;27;19923;-83
2021/06/22 04:43:35;;;;;;;;;;;;;;;9.02;100.00;99585.78;5137611;27;19933;-82
2021/06/22 04:46:02;;;;;;;;;;;;;;;9.08;100.00;99584.19;5115933;27;19923;-83
2021/06/22 04:48:29;;;;;;;;;;;;;;;9.13;100.00;99583.75;5137407;27;20010;-82
2021/06/22 04:50:59;;;;;;;;;;;;;;;9.26;100.00;99588.91;5118948;27;19930;-82
2021/06/22 04:53:27;;;;;;;;;;;;;;;9.36;100.00;99594.47;5138291;27;19930;-83
2021/06/22 04:55:54;;;;;;;;;;;;;;;9.53;100.00;99598.38;5119362;27;19923;-83
2021/06/22 04:58:21;;;;;;;;;;;;;;;9.64;100.00;99607.53;5119173;27;20013;-83
2021/06/22 05:00:48;;;;;;;;;;;;;;;9.78;100.00;99610.28;5132519;27;19923;-82
2021/06/22 05:03:15;;;;;;;;;;;;;;;9.78;100.00;99616.66;5137260;27;20017;-82
2021/06/22 05:05:43;;;;;;;;;;;;;;;9.81;100.00;99609.47;5118873;27;19968;-82
2021/06/22 05:08:11;;;;;;;;;;;;;;;9.73;100.00;99610.69;5137437;27;20282;-82
2021/06/22 05:10:38;;;;;;;;;;;;;;;9.59;100.00;99619.91;5126270;27;19927;-82
2021/06/22 05:13:05;;;;;;;;;;;;;;;9.49;100.00;99615.16;5137255;27;19934;-82
2021/06/22 05:15:32;;;;;;;;;;;;;;;9.37;100.00;99618.38;5119199;27;19977;-82
2021/06/22 05:18:00;;;;;;;;;;;;;;;9.31;100.00;99624.75;5136642;27;19923;-82
2021/06/22 05:20:29;;;;;;;;;;;;;;;9.35;100.00;99608.81;5136422;27;19950;-83
2021/06/22 05:22:56;;;;;;;;;;;;;;;9.33;100.00;99605.66;5118663;27;19947;-83
2021/06/22 05:25:24;;;;;;;;;;;;;;;9.43;100.00;99615.97;5118984;27;20370;-82
2021/06/22 05:27:52;;;;;;;;;;;;;;;9.59;100.00;99619.13;5136622;27;19924;-83
2021/06/22 05:30:19;;;;;;;;;;;;;;;9.66;100.00;99624.66;5136495;27;19924;-83
2021/06/22 05:32:46;;;;;;;;;;;;;;;9.75;100.00;99622.25;5101432;27;19930;-82
2021/06/22 05:35:13;;;;;;;;;;;;;;;9.84;100.00;99619.81;5136753;27;19924;-82
2021/06/22 05:37:41;;;;;;;;;;;;;;;9.92;100.00;99626.97;5136724;27;19935;-82
2021/06/22 05:40:09;;;;;;;;;;;;;;;10.10;100.00;99627.69;5129633;27;19923;-82
2021/06/22 05:42:36;;;;;;;;;;;;;;;10.60;100.00;99629.00;5118379;27;19927;-82
2021/06/22 05:45:04;;;;;;;;;;;;;;;11.14;100.00;99624.53;5101311;27;20356;-82
2021/06/22 05:47:32;;;;;;;;;;;;;;;12.20;100.00;99624.94;5117408;27;20277;-81
2021/06/22 05:50:00;;;;;;;;;;;;;;;13.51;100.00;99618.81;5100306;27;19929;-80
2021/06/22 05:52:27;;;;;;;;;;;;;;;14.50;100.00;99609.91;5132643;27;19923;-80
2021/06/22 05:54:54;;;;;;;;;;;;;;;15.12;100.00;99612.41;5117175;27;19923;-81
2021/06/22 05:57:21;;;;;;;;;;;;;;;15.51;100.00;99614.22;5135546;27;20429;-80
2021/06/22 05:59:49;;;;;;;;;;;;;;;15.28;100.00;99617.22;5100058;27;20263;-82
2021/06/22 06:02:15;;;;;;;;;;;;;;;14.50;100.00;99618.34;5102964;27;19984;-80
2021/06/22 06:04:43;;;;;;;;;;;;;;;14.08;100.00;99608.81;5100107;27;19931;-80
2021/06/22 06:07:10;;;;;;;;;;;;;;;13.46;100.00;99622.13;5135215;27;19923;-80
2021/06/22 06:09:37;;;;;;;;;;;;;;;13.04;100.00;99620.84;5116906;27;19961;-80
2021/06/22 06:12:05;;;;;;;;;;;;;;;12.89;100.00;99621.50;5134928;27;19923;-80
2021/06/22 06:14:32;;;;;;;;;;;;;;;12.89;100.00;99622.28;5116087;27;19931;-80
2021/06/22 06:16:59;;;;;;;;;;;;;;;13.23;100.00;99619.31;5116107;27;19927;-80
2021/06/22 06:19:26;;;;;;;;;;;;;;;13.45;100.00;99621.31;5134499;27;19923;-80
2021/06/22 06:21:53;;;;;;;;;;;;;;;13.27;100.00;99618.03;5134401;27;19931;-80
2021/06/22 06:24:21;;;;;;;;;;;;;;;13.34;100.00;99614.31;5134540;27;19971;-80
2021/06/22 06:26:58;;;;;;;;;;;;;;;13.15;100.00;99620.66;5134791;27;19924;-80
2021/06/22 06:29:35;;;;;;;;;;;;;;;12.92;100.00;99617.84;5114177;27;19923;-81
2021/06/22 06:32:03;;;;;;;;;;;;;;;12.70;100.00;99615.38;5123195;27;20327;-80
2021/06/22 06:34:30;;;;;;;;;;;;;;;12.44;100.00;99618.19;5115679;27;19923;-81
2021/06/22 06:36:57;;;;;;;;;;;;;;;12.40;100.00;99617.44;5107561;27;20295;-81
2021/06/22 06:39:24;;;;;;;;;;;;;;;12.54;100.00;99629.25;5116317;27;19930;-81
2021/06/22 06:41:54;;;;;;;;;;;;;;;12.80;100.00;99624.06;5116589;27;19996;-80
2021/06/22 06:44:21;;;;;;;;;;;;;;;13.15;100.00;99629.06;5116157;27;19924;-81
2021/06/22 06:46:48;;;;;;;;;;;;;;;13.17;100.00;99635.88;5134564;27;19930;-79
2021/06/22 06:49:16;;;;;;;;;;;;;;;13.19;100.00;99629.81;5116157;27;19927;-79
2021/06/22 06:51:43;;;;;;;;;;;;;;;13.19;100.00;99627.03;5134322;27;19989;-79
2021/06/22 06:54:10;;;;;;;;;;;;;;;13.56;100.00;99621.09;5134335;27;20249;-79
2021/06/22 06:56:37;;;;;;;;;;;;;;;15.08;100.00;99620.16;5102241;28;19924;-80
2021/06/22 06:59:04;;;;;;;;;;;;;;;16.02;100.00;99616.75;5121503;27;19923;-80
2021/06/22 07:01:32;;;;;;;;;;;;;;;17.17;100.00;99611.53;5090123;27;19994;-78
2021/06/22 07:03:59;;;;;;;;;;;;;;;18.40;100.00;99607.09;5134235;27;20415;-78
2021/06/22 07:06:26;;;;;;;;;;;;;;;18.51;100.00;99610.28;5134307;27;19927;-78
2021/06/22 07:08:54;;;;;;;;;;;;;;;19.39;100.00;99615.16;5116117;28;19931;-79
2021/06/22 07:11:21;;;;;;;;;;;;;;;20.04;100.00;99614.72;5133947;27;19977;-78
2021/06/22 07:13:49;;;;;;;;;;;;;;;20.59;100.00;99605.63;5134417;27;19924;-77
2021/06/22 07:16:16;;;;;;;;;;;;;;;21.00;100.00;99604.03;5115745;28;19931;-77
2021/06/22 07:18:44;;;;;;;;;;;;;;;20.19;100.00;99609.97;5134314;27;20023;-78
2021/06/22 07:21:12;;;;;;;;;;;;;;;21.24;100.00;99607.69;5134146;27;19923;-78
2021/06/22 07:23:40;;;;;;;;;;;;;;;21.84;100.00;99596.84;5133950;27;20018;-78
2021/06/22 07:26:07;;;;;;;;;;;;;;;21.89;100.00;99601.88;5133930;27;19980;-79
2021/06/22 07:28:34;;;;;;;;;;;;;;;21.14;100.00;99612.63;5089366;28;19931;-81
2021/06/22 07:31:02;;;;;;;;;;;;;;;20.70;100.00;99610.78;5134223;27;19924;-79
2021/06/22 07:33:30;;;;;;;;;;;;;;;20.23;100.00;99617.06;5133873;27;19923;-81
2021/06/22 07:35:57;;;;;;;;;;;;;;;20.91;100.00;99621.09;5133439;27;19927;-79
2021/06/22 07:38:25;;;;;;;;;;;;;;;20.98;100.00;99617.94;5131086;27;19931;-83
2021/06/22 07:40:52;;;;;;;;;;;;;;;21.39;100.00;99619.91;5112803;27;19988;-86
2021/06/22 07:43:20;;;;;;;;;;;;;;;21.37;100.00;99622.47;5122572;27;20373;-84
2021/06/22 07:45:48;;;;;;;;;;;;;;;21.92;100.00;99612.25;5137089;27;19924;-85
2021/06/22 07:48:15;;;;;;;;;;;;;;;22.23;100.00;99611.81;5098826;27;19923;-86
2021/06/22 07:50:42;;;;;;;;;;;;;;;23.08;100.00;99603.69;5116248;27;20022;-85
2021/06/22 07:53:09;;;;;;;;;;;;;;;23.26;100.00;99610.47;5116833;27;19923;-82
2021/06/22 07:55:36;;;;;;;;;;;;;;;22.69;100.00;99613.69;5134342;27;19927;-82
2021/06/22 07:58:04;;;;;;;;;;;;;;;20.13;100.00;99626.84;5116445;27;20348;-82
2021/06/22 08:00:46;;;;;;;;;;;;;;;19.10;100.00;99638.19;5134165;27;20350;-81
2021/06/22 08:03:14;;;;;;;;;;;;;;;18.40;100.00;99637.41;5134289;27;20515;-81
2021/06/22 08:05:42;;;;;;;;;;;;;;;18.56;100.00;99645.66;5128676;27;19929;-82
2021/06/22 08:08:12;;;;;;;;;;;;;;;17.86;100.00;99641.41;5129217;27;19923;-81
2021/06/22 08:10:39;;;;;;;;;;;;;;;19.34;100.00;99656.22;5134212;27;19955;-81
2021/06/22 08:13:06;;;;;;;;;;;;;;;19.10;100.00;99649.53;5133718;27;19973;-82
2021/06/22 08:15:35;;;;;;;;;;;;;;;18.12;100.00;99652.59;5116118;27;19923;-81
2021/06/22 08:18:03;;;;;;;;;;;;;;;16.84;100.00;99663.06;5134746;27;19976;-82
2021/06/22 08:20:30;;;;;;;;;;;;;;;18.27;100.00;99653.63;5117981;27;19984;-82
2021/06/22 08:22:59;;;;;;;;;;;;;;;19.20;100.00;99658.84;5118393;27;19931;-81
2021/06/22 08:25:27;;;;;;;;;;;;;;;20.38;100.00;99642.72;5131509;27;19983;-80
2021/06/22 08:27:55;;;;;;;;;;;;;;;19.62;100.00;99657.88;5136581;27;19927;-78
2021/06/22 08:30:23;;;;;;;;;;;;;;;18.29;100.00;99668.91;5136510;27;20386;-78
2021/06/22 08:32:51;;;;;;;;;;;;;;;17.75;100.00;99671.31;5136631;27;20391;-78
2021/06/22 08:35:18;;;;;;;;;;;;;;;16.73;100.00;99676.72;5136864;27;20321;-77
2021/06/22 08:37:46;;;;;;;;;;;;;;;16.23;100.00;99678.19;5136968;27;19928;-78
2021/06/22 08:40:13;;;;;;;;;;;;;;;16.69;100.00;99679.63;5118358;27;19986;-78
2021/06/22 08:42:41;;;;;;;;;;;;;;;18.37;100.00;99666.59;5135856;27;20260;-78
2021/06/22 08:45:10;;;;;;;;;;;;;;;18.72;100.00;99668.88;5136111;27;20014;-78
2021/06/22 08:47:37;;;;;;;;;;;;;;;19.28;100.00;99660.94;5121814;27;19928;-78
2021/06/22 08:50:05;;;;;;;;;;;;;;;18.31;100.00;99657.13;5136090;27;20010;-78
2021/06/22 08:52:35;;;;;;;;;;;;;;;17.54;100.00;99660.72;5117369;27;20297;-78
2021/06/22 08:55:07;;;;;;;;;;;;;;;16.59;100.00;99671.50;5135832;27;20335;-78
2021/06/22 08:57:35;;;;;;;;;;;;;;;15.93;100.00;99675.81;5135406;27;19923;-78
2021/06/22 09:00:04;;;;;;;;;;;;;;;15.54;100.00;99678.91;5135892;27;19923;-78
2021/06/22 09:02:33;;;;;;;;;;;;;;;15.19;100.00;99681.81;5135592;27;19924;-78
2021/06/22 09:05:01;;;;;;;;;;;;;;;14.93;100.00;99697.72;5135622;27;20374;-78
2021/06/22 09:07:50;;;;;;;;;;;;;;;14.56;100.00;99681.28;5135538;27;20393;-78
2021/06/22 09:10:18;;;;;;;;;;;;;;;15.21;100.00;99685.75;5135428;27;20329;-78
2021/06/22 09:12:45;;;;;;;;;;;;;;;16.09;100.00;99684.22;5117097;27;20420;-78
2021/06/22 09:15:18;;;;;;;;;;;;;;;16.39;100.00;99685.00;5135502;27;20010;-78
2021/06/22 09:17:46;;;;;;;;;;;;;;;16.00;100.00;99684.09;5135331;27;19924;-78
2021/06/22 09:20:14;;;;;;;;;;;;;;;15.51;100.00;99676.97;5135336;27;19924;-78
2021/06/22 09:22:42;;;;;;;;;;;;;;;15.32;100.00;99680.66;5135167;27;19923;-78
2021/06/22 09:25:10;;;;;;;;;;;;;;;15.21;100.00;99688.56;5116737;27;19923;-78
2021/06/22 09:27:54;;;;;;;;;;;;;;;15.08;100.00;99693.31;5135255;27;20290;-77
2021/06/22 09:30:36;;;;;;;;;;;;;;;15.77;100.00;99691.97;5135174;27;19923;-77
2021/06/22 09:33:19;;;;;;;;;;;;;;;15.63;100.00;99678.28;5135178;27;19923;-78
2021/06/22 09:35:46;;;;;;;;;;;;;;;15.75;100.00;99686.78;5116785;27;19924;-78
2021/06/22 09:38:14;;;;;;;;;;;;;;;16.15;100.00;99681.63;5134995;27;19930;-78
2021/06/22 09:40:42;;;;;;;;;;;;;;;16.21;100.00;99677.03;5099755;27;19923;-78
2021/06/22 09:43:10;;;;;;;;;;;;;;;16.77;100.00;99678.19;5134955;27;19927;-78
2021/06/22 09:45:38;;;;;;;;;;;;;;;16.97;100.00;99675.13;5116677;27;19923;-78
2021/06/22 09:48:05;;;;;;;;;;;;;;;16.72;100.00;99675.91;5099624;27;19953;-78
2021/06/22 09:50:43;;;;;;;;;;;;;;;16.99;100.00;99669.84;5134592;27;19923;-78
2021/06/22 09:53:21;;;;;;;;;;;;;;;17.65;100.00;99658.31;5117122;27;19923;-78
2021/06/22 09:55:51;;;;;;;;;;;;;;;17.02;100.00;99660.47;5134392;27;19995;-78
2021/06/22 09:58:39;;;;;;;;;;;;;;;17.39;100.00;99656.78;5134920;27;20546;-78
2021/06/22 10:01:25;;;;;;;;;;;;;;;17.27;100.00;99660.41;5134678;27;20362;-78
2021/06/22 10:03:52;;;;;;;;;;;;;;;17.27;100.00;99668.91;5134648;27;19946;-78
2021/06/22 10:06:33;;;;;;;;;;;;;;;17.00;100.00;99671.41;5134007;27;20022;-78
2021/06/22 10:09:00;;;;;;;;;;;;;;;16.94;100.00;99670.41;5134530;27;19924;-78
2021/06/22 10:11:31;;;;;;;;;;;;;;;17.20;100.00;99658.66;5120225;27;20235;-78
2021/06/22 10:13:59;;;;;;;;;;;;;;;17.39;100.00;99662.44;5134254;27;19930;-78
2021/06/22 10:16:29;;;;;;;;;;;;;;;17.65;100.00;99647.03;5134030;27;19976;-78
2021/06/22 10:18:58;;;;;;;;;;;;;;;17.50;100.00;99648.78;5134306;27;19928;-78
2021/06/22 10:21:26;;;;;;;;;;;;;;;17.36;100.00;99657.69;5133827;27;19927;-78
2021/06/22 10:23:54;;;;;;;;;;;;;;;17.27;100.00;99660.41;5134075;27;20014;-78
2021/06/22 10:26:25;;;;;;;;;;;;;;;16.73;100.00;99666.22;5133883;27;19962;-77
2021/06/22 10:28:53;;;;;;;;;;;;;;;16.61;100.00;99669.03;5115817;27;19951;-77
2021/06/22 10:31:20;;;;;;;;;;;;;;;16.60;100.00;99667.47;5133902;27;20004;-78
2021/06/22 10:33:47;;;;;;;;;;;;;;;16.60;100.00;99661.81;5133735;27;19971;-78
2021/06/22 10:36:29;;;;;;;;;;;;;;;16.25;100.00;99658.78;5115669;27;20062;-77
2021/06/22 10:39:00;;;;;;;;;;;;;;;16.14;100.00;99660.34;5133729;27;19931;-78
2021/06/22 10:41:33;;;;;;;;;;;;;;;15.83;100.00;99671.28;5133949;27;19934;-77
2021/06/22 10:44:01;;;;;;;;;;;;;;;15.09;100.00;99665.94;5133571;27;20064;-78
2021/06/22 10:46:28;;;;;;;;;;;;;;;15.15;100.00;99681.88;5115607;27;19924;-77
2021/06/22 10:48:55;;;;;;;;;;;;;;;15.30;100.00;99677.47;5133684;27;20517;-77
2021/06/22 10:51:35;;;;;;;;;;;;;;;15.48;100.00;99677.84;5133617;27;19929;-77
2021/06/22 10:54:02;;;;;;;;;;;;;;;15.59;100.00;99678.38;5133462;27;19923;-78
2021/06/22 10:56:32;;;;;;;;;;;;;;;15.66;100.00;99678.16;5115770;27;19931;-78
2021/06/22 10:59:11;;;;;;;;;;;;;;;15.76;100.00;99663.03;5133578;27;19934;-77
2021/06/22 11:01:54;;;;;;;;;;;;;;;15.89;100.00;99661.03;5133726;27;19927;-78
2021/06/22 11:04:22;;;;;;;;;;;;;;;16.20;100.00;99661.38;5114952;27;20430;-77
2021/06/22 11:06:59;;;;;;;;;;;;;;;16.21;100.00;99668.56;5115067;27;20026;-78
2021/06/22 11:09:27;;;;;;;;;;;;;;;16.11;100.00;99672.50;5133456;27;20271;-78
2021/06/22 11:12:13;;;;;;;;;;;;;;;16.31;100.00;99661.06;5133631;27;20015;-78
2021/06/22 11:14:59;;;;;;;;;;;;;;;16.33;100.00;99664.22;5133266;27;19931;-78
2021/06/22 11:17:42;;;;;;;;;;;;;;;16.41;100.00;99659.94;5117064;27;19924;-78
2021/06/22 11:20:13;;;;;;;;;;;;;;;16.27;100.00;99655.50;5140655;27;20012;-78
2021/06/22 11:23:00;;;;;;;;;;;;;;;16.36;100.00;99657.69;5117879;27;19923;-77
2021/06/22 11:25:47;;;;;;;;;;;;;;;16.47;100.00;99653.31;5119166;27;20022;-78
2021/06/22 11:28:14;;;;;;;;;;;;;;;16.40;100.00;99635.81;5123277;27;20006;-78
2021/06/22 11:30:51;;;;;;;;;;;;;;;16.63;100.00;99644.00;5119361;27;19923;-78
2021/06/22 11:33:30;;;;;;;;;;;;;;;16.86;100.00;99629.53;5137573;27;19971;-78
2021/06/22 11:36:16;;;;;;;;;;;;;;;17.10;100.00;99634.34;5119188;27;19969;-78
2021/06/22 11:38:44;;;;;;;;;;;;;;;17.06;100.00;99641.38;5137212;27;19923;-77
2021/06/22 11:41:15;;;;;;;;;;;;;;;16.83;100.00;99659.44;5119243;27;19929;-78
2021/06/22 11:44:09;;;;;;;;;;;;;;;16.43;100.00;99654.66;5137208;27;19923;-77
2021/06/22 11:46:38;;;;;;;;;;;;;;;16.34;100.00;99652.50;5137543;27;20404;-77
2021/06/22 11:49:05;;;;;;;;;;;;;;;16.37;100.00;99656.44;5136906;27;19938;-78
2021/06/22 11:51:48;;;;;;;;;;;;;;;16.43;100.00;99663.91;5137061;27;20407;-77
2021/06/22 11:54:16;;;;;;;;;;;;;;;16.35;100.00;99656.88;5118635;27;19924;-78
2021/06/22 11:56:43;;;;;;;;;;;;;;;16.37;100.00;99650.81;5137092;27;20298;-78
2021/06/22 11:59:10;;;;;;;;;;;;;;;16.59;100.00;99646.91;5136966;27;19923;-78
2021/06/22 12:01:44;;;;;;;;;;;;;;;16.97;100.00;99644.09;5137262;27;20390;-78
2021/06/22 12:04:11;;;;;;;;;;;;;;;17.20;100.00;99638.06;5136437;27;20003;-77
2021/06/22 12:06:39;;;;;;;;;;;;;;;17.34;100.00;99646.06;5136899;27;19923;-78
2021/06/22 12:09:18;;;;;;;;;;;;;;;17.46;100.00;99628.34;5137099;27;19923;-78
2021/06/22 12:11:47;;;;;;;;;;;;;;;17.14;100.00;99640.69;5136871;27;20031;-78
2021/06/22 12:14:15;;;;;;;;;;;;;;;17.31;100.00;99632.88;5118282;27;19923;-78
2021/06/22 12:16:45;;;;;;;;;;;;;;;17.16;100.00;99620.47;5136764;27;20353;-77
2021/06/22 12:19:17;;;;;;;;;;;;;;;17.18;100.00;99618.75;5136378;27;19956;-78
2021/06/22 12:21:46;;;;;;;;;;;;;;;17.32;100.00;99606.19;5136584;27;19923;-78
2021/06/22 12:24:16;;;;;;;;;;;;;;;17.72;100.00;99607.22;5136551;27;19923;-78
2021/06/22 12:26:45;;;;;;;;;;;;;;;17.56;100.00;99604.56;5136428;27;19930;-78
2021/06/22 12:29:18;;;;;;;;;;;;;;;17.18;100.00;99615.13;5135892;27;19923;-77
2021/06/22 12:31:56;;;;;;;;;;;;;;;16.77;100.00;99613.28;5117926;27;19923;-78
2021/06/22 12:34:25;;;;;;;;;;;;;;;16.79;100.00;99605.16;5136157;27;20022;-78
2021/06/22 12:36:52;;;;;;;;;;;;;;;16.95;100.00;99604.25;5117955;27;19934;-78
2021/06/22 12:39:21;;;;;;;;;;;;;;;17.06;100.00;99596.19;5136183;27;19931;-78
2021/06/22 12:41:48;;;;;;;;;;;;;;;17.13;100.00;99598.78;5136301;27;19930;-78
2021/06/22 12:44:24;;;;;;;;;;;;;;;16.95;100.00;99590.13;5117989;27;19927;-78
2021/06/22 12:46:51;;;;;;;;;;;;;;;16.71;100.00;99588.88;5136074;27;19923;-78
2021/06/22 12:49:26;;;;;;;;;;;;;;;17.04;100.00;99590.22;5135770;27;19924;-77
2021/06/22 12:51:57;;;;;;;;;;;;;;;17.22;100.00;99596.06;5117794;27;19924;-78
2021/06/22 12:54:25;;;;;;;;;;;;;;;17.17;100.00;99602.28;5135741;27;19957;-78
2021/06/22 12:56:57;;;;;;;;;;;;;;;16.41;100.00;99604.31;5117526;27;20027;-78
2021/06/22 12:59:29;;;;;;;;;;;;;;;16.22;100.00;99617.38;5135723;27;19950;-78